createdAt,value
2022-08-21T06:14:03.650Z,1009.21
2022-08-21T06:24:03.465Z,1009.38
2022-08-21T06:34:03.536Z,1009.38
2022-08-21T06:44:03.551Z,1009.64
2022-08-21T06:54:03.438Z,1009.59
2022-08-21T07:04:03.576Z,1009.56
2022-08-21T07:14:03.718Z,1009.50
2022-08-21T07:24:03.554Z,1009.25
2022-08-21T07:34:03.733Z,1009.28
2022-08-21T07:44:03.714Z,1009.19
2022-08-21T07:54:03.716Z,1009.14
2022-08-21T08:04:03.621Z,1009.21
2022-08-21T08:14:03.628Z,1008.96
2022-08-21T08:24:19.374Z,1009.01
2022-08-21T08:34:03.924Z,1008.86
2022-08-21T08:44:03.814Z,1008.89
2022-08-21T08:54:03.714Z,1008.72
2022-08-21T09:04:03.920Z,1008.76
2022-08-21T09:14:03.663Z,1008.74
2022-08-21T09:24:03.685Z,1008.70
2022-08-21T09:34:03.864Z,1008.68
2022-08-21T09:44:03.674Z,1008.60
2022-08-21T09:54:03.695Z,1008.63
2022-08-21T10:04:03.633Z,1008.54
2022-08-21T10:14:03.936Z,1008.43
2022-08-21T10:24:03.906Z,1008.41
2022-08-21T10:34:03.831Z,1008.40
2022-08-21T10:44:03.950Z,1008.25
2022-08-21T10:54:03.814Z,1008.09
2022-08-21T11:04:03.864Z,1008.14
2022-08-21T11:14:03.892Z,1008.21
2022-08-21T11:24:04.045Z,1008.13
2022-08-21T11:34:03.972Z,1008.00
2022-08-21T11:44:03.958Z,1008.04
2022-08-21T11:54:03.915Z,1007.93
2022-08-21T12:04:04.216Z,1007.89
2022-08-21T12:14:04.273Z,1007.88
2022-08-21T12:24:03.861Z,1007.92
2022-08-21T12:34:03.923Z,1007.80
2022-08-21T12:44:03.963Z,1007.76
2022-08-21T12:54:03.944Z,1007.69
2022-08-21T13:04:04.422Z,1007.72
2022-08-21T13:14:04.675Z,1007.70
2022-08-21T13:24:14.857Z,1007.67
2022-08-21T13:34:04.146Z,1007.74
2022-08-21T13:44:04.132Z,1007.66
2022-08-21T13:54:04.003Z,1007.57
2022-08-21T14:04:03.896Z,1007.61
2022-08-21T14:14:04.109Z,1007.56
2022-08-21T14:24:04.426Z,1007.54
2022-08-21T14:34:04.166Z,1007.57
2022-08-21T14:44:09.286Z,1007.50
2022-08-21T14:54:04.140Z,1007.53
2022-08-21T15:04:04.029Z,1007.41
2022-08-21T15:14:04.148Z,1007.43
2022-08-21T15:24:04.174Z,1007.39
2022-08-21T15:34:04.390Z,1007.38
2022-08-21T15:44:04.294Z,1007.39
2022-08-21T15:54:04.503Z,1007.19
2022-08-21T16:04:04.683Z,1007.44
2022-08-21T16:14:04.531Z,1007.46
2022-08-21T16:24:04.810Z,1007.36
2022-08-21T16:34:04.630Z,1007.42
2022-08-21T16:44:04.610Z,1007.23
2022-08-21T16:54:05.048Z,1007.29
2022-08-21T17:04:04.729Z,1007.30
2022-08-21T17:14:04.504Z,1007.31
2022-08-21T17:24:04.574Z,1007.35
2022-08-21T17:34:04.552Z,1007.44
2022-08-21T17:44:04.826Z,1007.52
2022-08-21T17:54:04.687Z,1007.49
2022-08-21T18:04:04.888Z,1007.64
2022-08-21T18:14:07.660Z,1007.71
2022-08-21T18:24:04.634Z,1007.72
2022-08-21T18:34:04.797Z,1007.90
2022-08-21T18:44:04.635Z,1007.86
2022-08-21T18:54:04.605Z,1007.99
2022-08-21T19:04:04.607Z,1007.91
2022-08-21T19:14:04.896Z,1008.07
